Aérodrome :
LOGIN :

S'inscrire | Disclaimer

   EN    FR    IT 

 










Légende :    VFR   VFR Marginal   IFR   IFR Intensif   IFR Très Intensif
Visi : 
Plafond : 
>= 8 km
>= 3000ft
5 à 8 km
1000 à 3000 ft
1500m à 5 km
500 à 1000 ft
800 à 1500m
200 à 500 ft
< 800m
< 200 ft
Symboles :   Orages  Brouillard  Fortes neiges  Fortes précipitations  Vent > 20 kt
SIGMETs :   Divers  Orages  Givrage  Turbulence  Onde Orograph.  Cendres Volcan.






- Altitude de l'aérodrome : 1470 ft
- Code IATA : KLU


LOWK - Klagenfurt

DERNIER METAR :
  • 060450Z VRB02KT 9999 OVC006 M01/M03 Q1024 NOSIG

METARs EXPIRÉS :
  • 060420Z AUTO VRB02KT 9999 OVC006 M01/M03 Q1024
  • 060350Z AUTO VRB02KT 9000 BKN007 M01/M03 Q1024
  • 060320Z AUTO 07002KT 9999 OVC007 M01/M03 Q1024
  • 060250Z AUTO VRB01KT 9999 FEW006 SCT007 BKN008 M01/M03 Q1024
  • 060220Z AUTO VRB01KT 9999 FEW006 BKN007 M01/M03 Q1024

TAF TAF LOWK
Valide du 06 à 00h jusqu'au 07 à 00h UTC


052315Z 0600/0624 VRB02KT 9999 OVC012 TX02/0613Z TNM04/0624Z
TEMPO 0600/0610 4000 BR OVC007
TEMPO 0612/0619 BKN015



MET'MAP, la Météo Aéronautique d'un coup d'oeil ! - Copyright ORBIFLY Décembre 2007 - Disclaimer

ORBIFLY MET'MAP TEAM :

Programmation & Développement : Alexandra Zaïnal
Sur une idée originale de : Baudouin d'Aumeries
Assistance à la programmation : Marc-Olivier Méhu
Soutien technique & logistique : Manuel Goepfert

Contact : metmap@orbifly.com




SOURCES & CREDITS :

   NOAA